sensor_id;sensor_type;location;lat;lon;timestamp;pressure;altitude;pressure_sealevel;temperature;humidity
46408;BME280;32110;45.724;21.276;2023-05-01T00:01:42;100574.06;;;9.99;nan
46408;BME280;32110;45.724;21.276;2023-05-01T00:04:08;100587.38;;;10.05;nan
46408;BME280;32110;45.724;21.276;2023-05-01T00:06:33;100587.66;;;9.96;nan
46408;BME280;32110;45.724;21.276;2023-05-01T00:08:58;100589.66;;;10.01;nan
46408;BME280;32110;45.724;21.276;2023-05-01T00:11:24;100579.34;;;9.99;nan
46408;BME280;32110;45.724;21.276;2023-05-01T00:13:50;100580.59;;;9.97;nan
46408;BME280;32110;45.724;21.276;2023-05-01T00:16:15;100585.84;;;9.97;nan
46408;BME280;32110;45.724;21.276;2023-05-01T00:18:42;100578.94;;;9.96;nan
46408;BME280;32110;45.724;21.276;2023-05-01T00:21:07;100575.56;;;9.89;nan
46408;BME280;32110;45.724;21.276;2023-05-01T00:23:33;100583.31;;;9.84;nan
46408;BME280;32110;45.724;21.276;2023-05-01T00:25:58;100569.06;;;9.73;nan
46408;BME280;32110;45.724;21.276;2023-05-01T00:28:23;100581.75;;;9.76;nan
46408;BME280;32110;45.724;21.276;2023-05-01T00:30:49;100579.34;;;9.74;nan
46408;BME280;32110;45.724;21.276;2023-05-01T00:33:14;100586.81;;;9.77;nan
46408;BME280;32110;45.724;21.276;2023-05-01T00:35:43;100579.41;;;9.68;nan
46408;BME280;32110;45.724;21.276;2023-05-01T00:38:09;100582.03;;;9.68;nan
46408;BME280;32110;45.724;21.276;2023-05-01T00:40:41;100566.19;;;9.49;nan
46408;BME280;32110;45.724;21.276;2023-05-01T00:43:06;100578.25;;;9.57;nan
46408;BME280;32110;45.724;21.276;2023-05-01T00:45:32;100567.22;;;9.48;nan
46408;BME280;32110;45.724;21.276;2023-05-01T00:47:57;100583.56;;;9.50;nan
46408;BME280;32110;45.724;21.276;2023-05-01T00:50:23;100579.34;;;9.49;nan
46408;BME280;32110;45.724;21.276;2023-05-01T00:52:48;100580.06;;;9.31;nan
46408;BME280;32110;45.724;21.276;2023-05-01T00:55:13;100567.16;;;9.23;nan
46408;BME280;32110;45.724;21.276;2023-05-01T00:57:39;100586.75;;;9.27;nan
46408;BME280;32110;45.724;21.276;2023-05-01T01:00:05;100578.88;;;9.27;nan
46408;BME280;32110;45.724;21.276;2023-05-01T01:02:31;100590.78;;;9.30;nan
46408;BME280;32110;45.724;21.276;2023-05-01T01:04:57;100576.28;;;9.21;nan
46408;BME280;32110;45.724;21.276;2023-05-01T01:07:35;100587.44;;;9.09;nan
46408;BME280;32110;45.724;21.276;2023-05-01T01:13:07;100587.09;;;9.06;nan
46408;BME280;32110;45.724;21.276;2023-05-01T01:18:23;100599.97;;;9.07;nan
46408;BME280;32110;45.724;21.276;2023-05-01T01:21:10;100594.38;;;9.04;nan
46408;BME280;32110;45.724;21.276;2023-05-01T01:23:52;100609.72;;;9.00;nan
46408;BME280;32110;45.724;21.276;2023-05-01T01:31:59;100598.84;;;8.90;nan
46408;BME280;32110;45.724;21.276;2023-05-01T01:34:49;100606.75;;;8.83;nan
46408;BME280;32110;45.724;21.276;2023-05-01T01:37:22;100595.28;;;8.78;nan
46408;BME280;32110;45.724;21.276;2023-05-01T01:39:55;100593.09;;;8.68;nan
46408;BME280;32110;45.724;21.276;2023-05-01T01:42:29;100588.66;;;8.68;nan
46408;BME280;32110;45.724;21.276;2023-05-01T01:45:01;100603.75;;;8.80;nan
46408;BME280;32110;45.724;21.276;2023-05-01T01:47:31;100598.94;;;8.77;nan
46408;BME280;32110;45.724;21.276;2023-05-01T01:50:00;100593.69;;;8.70;nan
46408;BME280;32110;45.724;21.276;2023-05-01T01:52:29;100586.25;;;8.60;nan
46408;BME280;32110;45.724;21.276;2023-05-01T01:55:03;100598.94;;;8.70;nan
46408;BME280;32110;45.724;21.276;2023-05-01T01:57:31;100590.31;;;8.56;nan
46408;BME280;32110;45.724;21.276;2023-05-01T01:59:57;100604.41;;;8.62;nan
46408;BME280;32110;45.724;21.276;2023-05-01T02:02:23;100609.09;;;8.60;nan
46408;BME280;32110;45.724;21.276;2023-05-01T02:04:51;100610.13;;;8.45;nan
46408;BME280;32110;45.724;21.276;2023-05-01T02:07:18;100599.03;;;8.43;nan
46408;BME280;32110;45.724;21.276;2023-05-01T02:09:45;100603.06;;;8.46;nan
46408;BME280;32110;45.724;21.276;2023-05-01T02:12:11;100604.06;;;8.45;nan
46408;BME280;32110;45.724;21.276;2023-05-01T02:14:38;100596.59;;;8.42;nan
46408;BME280;32110;45.724;21.276;2023-05-01T02:17:05;100596.41;;;8.43;nan
46408;BME280;32110;45.724;21.276;2023-05-01T02:19:33;100603.84;;;8.46;nan
46408;BME280;32110;45.724;21.276;2023-05-01T02:21:59;100600.22;;;8.47;nan
46408;BME280;32110;45.724;21.276;2023-05-01T02:24:27;100578.00;;;8.37;nan
46408;BME280;32110;45.724;21.276;2023-05-01T02:26:57;100593.38;;;8.40;nan
46408;BME280;32110;45.724;21.276;2023-05-01T02:29:25;100587.72;;;8.36;nan
46408;BME280;32110;45.724;21.276;2023-05-01T02:31:51;100579.03;;;8.29;nan
46408;BME280;32110;45.724;21.276;2023-05-01T02:34:17;100588.31;;;8.31;nan
46408;BME280;32110;45.724;21.276;2023-05-01T02:36:42;100579.84;;;8.23;nan
46408;BME280;32110;45.724;21.276;2023-05-01T02:39:07;100597.81;;;8.26;nan
46408;BME280;32110;45.724;21.276;2023-05-01T02:41:34;100605.47;;;8.27;nan
46408;BME280;32110;45.724;21.276;2023-05-01T02:44:02;100598.41;;;8.28;nan
46408;BME280;32110;45.724;21.276;2023-05-01T02:46:30;100587.94;;;8.21;nan
46408;BME280;32110;45.724;21.276;2023-05-01T02:48:58;100586.13;;;8.22;nan
46408;BME280;32110;45.724;21.276;2023-05-01T02:51:25;100591.38;;;8.15;nan
46408;BME280;32110;45.724;21.276;2023-05-01T02:53:52;100596.63;;;8.08;nan
46408;BME280;32110;45.724;21.276;2023-05-01T02:56:18;100594.00;;;8.02;nan
46408;BME280;32110;45.724;21.276;2023-05-01T02:58:44;100606.31;;;8.08;nan
46408;BME280;32110;45.724;21.276;2023-05-01T03:01:09;100614.59;;;8.05;nan
46408;BME280;32110;45.724;21.276;2023-05-01T03:03:35;100618.81;;;7.99;nan
46408;BME280;32110;45.724;21.276;2023-05-01T03:06:01;100607.50;;;7.92;nan
46408;BME280;32110;45.724;21.276;2023-05-01T03:08:27;100605.72;;;7.93;nan
46408;BME280;32110;45.724;21.276;2023-05-01T03:10:52;100614.78;;;8.03;nan
46408;BME280;32110;45.724;21.276;2023-05-01T03:13:18;100607.34;;;8.00;nan
46408;BME280;32110;45.724;21.276;2023-05-01T03:15:43;100613.78;;;7.98;nan
46408;BME280;32110;45.724;21.276;2023-05-01T03:18:09;100607.09;;;8.02;nan
46408;BME280;32110;45.724;21.276;2023-05-01T03:20:34;100612.97;;;7.97;nan
46408;BME280;32110;45.724;21.276;2023-05-01T03:22:59;100616.41;;;7.98;nan
46408;BME280;32110;45.724;21.276;2023-05-01T03:25:25;100611.16;;;7.91;nan
46408;BME280;32110;45.724;21.276;2023-05-01T03:27:51;100609.53;;;7.90;nan
46408;BME280;32110;45.724;21.276;2023-05-01T03:30:17;100611.16;;;7.91;nan
46408;BME280;32110;45.724;21.276;2023-05-01T03:32:42;100627.50;;;7.93;nan
46408;BME280;32110;45.724;21.276;2023-05-01T03:35:08;100617.00;;;7.80;nan
46408;BME280;32110;45.724;21.276;2023-05-01T03:37:34;100626.69;;;7.79;nan
46408;BME280;32110;45.724;21.276;2023-05-01T03:39:59;100617.22;;;7.78;nan
46408;BME280;32110;45.724;21.276;2023-05-01T03:42:25;100621.44;;;7.79;nan
46408;BME280;32110;45.724;21.276;2023-05-01T03:44:50;100623.66;;;7.82;nan
46408;BME280;32110;45.724;21.276;2023-05-01T03:47:16;100625.06;;;7.85;nan
46408;BME280;32110;45.724;21.276;2023-05-01T03:49:42;100629.09;;;7.87;nan
46408;BME280;32110;45.724;21.276;2023-05-01T03:52:08;100606.13;;;7.76;nan
46408;BME280;32110;45.724;21.276;2023-05-01T03:54:33;100620.84;;;7.84;nan
46408;BME280;32110;45.724;21.276;2023-05-01T03:56:59;100619.25;;;7.83;nan
46408;BME280;32110;45.724;21.276;2023-05-01T03:59:25;100630.50;;;7.90;nan
46408;BME280;32110;45.724;21.276;2023-05-01T04:01:51;100632.53;;;7.95;nan
46408;BME280;32110;45.724;21.276;2023-05-01T04:04:16;100619.03;;;7.91;nan
46408;BME280;32110;45.724;21.276;2023-05-01T04:06:42;100626.69;;;7.99;nan
46408;BME280;32110;45.724;21.276;2023-05-01T04:09:08;100628.31;;;8.07;nan
46408;BME280;32110;45.724;21.276;2023-05-01T04:11:33;100639.00;;;8.12;nan
46408;BME280;32110;45.724;21.276;2023-05-01T04:13:59;100636.56;;;8.17;nan
46408;BME280;32110;45.724;21.276;2023-05-01T04:16:24;100636.16;;;8.20;nan
46408;BME280;32110;45.724;21.276;2023-05-01T04:18:50;100631.53;;;8.22;nan
46408;BME280;32110;45.724;21.276;2023-05-01T04:21:15;100634.34;;;8.27;nan
46408;BME280;32110;45.724;21.276;2023-05-01T04:23:43;100637.56;;;8.29;nan
46408;BME280;32110;45.724;21.276;2023-05-01T04:26:09;100625.66;;;8.27;nan
46408;BME280;32110;45.724;21.276;2023-05-01T04:28:34;100642.00;;;8.36;nan
46408;BME280;32110;45.724;21.276;2023-05-01T04:30:59;100627.25;;;8.35;nan
46408;BME280;32110;45.724;21.276;2023-05-01T04:33:25;100644.44;;;8.50;nan
46408;BME280;32110;45.724;21.276;2023-05-01T04:35:52;100643.22;;;8.53;nan
46408;BME280;32110;45.724;21.276;2023-05-01T04:38:18;100648.84;;;8.63;nan
46408;BME280;32110;45.724;21.276;2023-05-01T04:40:43;100634.31;;;8.61;nan
46408;BME280;32110;45.724;21.276;2023-05-01T04:43:09;100645.59;;;8.75;nan
46408;BME280;32110;45.724;21.276;2023-05-01T04:45:37;100630.84;;;8.73;nan
46408;BME280;32110;45.724;21.276;2023-05-01T04:48:02;100643.50;;;8.90;nan
46408;BME280;32110;45.724;21.276;2023-05-01T04:50:28;100657.22;;;8.99;nan
46408;BME280;32110;45.724;21.276;2023-05-01T06:30:02;100748.41;;;12.46;nan
46408;BME280;32110;45.724;21.276;2023-05-01T08:53:19;100784.66;;;16.51;nan
46408;BME280;32110;45.724;21.276;2023-05-01T09:54:39;100728.03;;;18.38;nan
46408;BME280;32110;45.724;21.276;2023-05-01T09:57:05;100744.59;;;18.30;nan
46408;BME280;32110;45.724;21.276;2023-05-01T10:11:55;100678.09;;;18.69;nan
46408;BME280;32110;45.724;21.276;2023-05-01T10:16:48;100762.66;;;18.89;nan
46408;BME280;32110;45.724;21.276;2023-05-01T10:21:41;100689.44;;;19.11;nan
46408;BME280;32110;45.724;21.276;2023-05-01T10:24:06;100685.94;;;19.16;nan
46408;BME280;32110;45.724;21.276;2023-05-01T10:26:34;100688.88;;;19.14;nan
46408;BME280;32110;45.724;21.276;2023-05-01T10:29:00;100701.72;;;19.12;nan
46408;BME280;32110;45.724;21.276;2023-05-01T10:31:26;100734.59;;;19.02;nan
46408;BME280;32110;45.724;21.276;2023-05-01T10:36:22;100688.06;;;19.19;nan
46408;BME280;32110;45.724;21.276;2023-05-01T10:41:14;100684.72;;;19.42;nan
46408;BME280;32110;45.724;21.276;2023-05-01T10:43:43;100669.72;;;19.51;nan
46408;BME280;32110;45.724;21.276;2023-05-01T10:53:39;100681.19;;;19.91;nan
46408;BME280;32110;45.724;21.276;2023-05-01T10:58:55;100673.25;;;20.10;nan
46408;BME280;32110;45.724;21.276;2023-05-01T11:01:34;100685.47;;;20.22;nan
46408;BME280;32110;45.724;21.276;2023-05-01T11:06:29;100723.53;;;20.37;nan
46408;BME280;32110;45.724;21.276;2023-05-01T11:08:56;100732.78;;;20.50;nan
46408;BME280;32110;45.724;21.276;2023-05-01T11:14:08;100730.63;;;20.57;nan
46408;BME280;32110;45.724;21.276;2023-05-01T11:19:52;100731.00;;;20.70;nan
46408;BME280;32110;45.724;21.276;2023-05-01T11:21:53;100719.47;;;20.74;nan
46408;BME280;32110;45.724;21.276;2023-05-01T11:24:19;100723.38;;;20.82;nan
46408;BME280;32110;45.724;21.276;2023-05-01T11:26:55;100721.22;;;20.84;nan
46408;BME280;32110;45.724;21.276;2023-05-01T11:29:21;100726.75;;;20.93;nan
46408;BME280;32110;45.724;21.276;2023-05-01T11:31:48;100719.50;;;20.93;nan
46408;BME280;32110;45.724;21.276;2023-05-01T11:36:51;100714.41;;;21.16;nan
46408;BME280;32110;45.724;21.276;2023-05-01T11:39:18;100719.41;;;21.22;nan
46408;BME280;32110;45.724;21.276;2023-05-01T11:41:43;100701.38;;;21.28;nan
46408;BME280;32110;45.724;21.276;2023-05-01T11:44:16;100700.94;;;21.21;nan
46408;BME280;32110;45.724;21.276;2023-05-01T11:46:42;100698.69;;;21.28;nan
46408;BME280;32110;45.724;21.276;2023-05-01T11:49:08;100699.44;;;21.34;nan
46408;BME280;32110;45.724;21.276;2023-05-01T11:51:34;100666.63;;;21.23;nan
46408;BME280;32110;45.724;21.276;2023-05-01T11:54:00;100705.38;;;21.50;nan
46408;BME280;32110;45.724;21.276;2023-05-01T11:56:26;100673.44;;;21.34;nan
46408;BME280;32110;45.724;21.276;2023-05-01T11:58:56;100691.63;;;21.56;nan
46408;BME280;32110;45.724;21.276;2023-05-01T12:01:36;100688.78;;;21.66;nan
46408;BME280;32110;45.724;21.276;2023-05-01T12:04:02;100680.19;;;21.70;nan
46408;BME280;32110;45.724;21.276;2023-05-01T12:06:42;100680.09;;;21.75;nan
46408;BME280;32110;45.724;21.276;2023-05-01T12:09:14;100684.78;;;21.83;nan
46408;BME280;32110;45.724;21.276;2023-05-01T12:11:41;100662.53;;;21.82;nan
46408;BME280;32110;45.724;21.276;2023-05-01T12:14:07;100678.94;;;21.95;nan
46408;BME280;32110;45.724;21.276;2023-05-01T12:16:34;100681.03;;;21.98;nan
46408;BME280;32110;45.724;21.276;2023-05-01T12:18:59;100666.22;;;22.00;nan
46408;BME280;32110;45.724;21.276;2023-05-01T12:21:25;100671.72;;;22.09;nan
46408;BME280;32110;45.724;21.276;2023-05-01T12:23:51;100670.06;;;22.13;nan
46408;BME280;32110;45.724;21.276;2023-05-01T12:26:22;100666.78;;;22.16;nan
46408;BME280;32110;45.724;21.276;2023-05-01T12:31:22;100665.31;;;22.24;nan
46408;BME280;32110;45.724;21.276;2023-05-01T12:34:06;100591.16;;;22.14;nan
46408;BME280;32110;45.724;21.276;2023-05-01T12:36:34;100716.84;;;22.67;nan
46408;BME280;32110;45.724;21.276;2023-05-01T12:39:07;100659.69;;;22.39;nan
46408;BME280;32110;45.724;21.276;2023-05-01T12:41:37;100660.19;;;22.41;nan
46408;BME280;32110;45.724;21.276;2023-05-01T12:46:41;100653.53;;;22.39;nan
46408;BME280;32110;45.724;21.276;2023-05-01T12:49:07;100642.78;;;22.39;nan
46408;BME280;32110;45.724;21.276;2023-05-01T12:51:33;100647.44;;;22.47;nan
46408;BME280;32110;45.724;21.276;2023-05-01T12:53:59;100653.72;;;22.56;nan
46408;BME280;32110;45.724;21.276;2023-05-01T12:56:24;100650.25;;;22.56;nan
46408;BME280;32110;45.724;21.276;2023-05-01T12:58:51;100646.66;;;22.60;nan
46408;BME280;32110;45.724;21.276;2023-05-01T13:01:27;100616.44;;;22.41;nan
46408;BME280;32110;45.724;21.276;2023-05-01T13:03:53;100637.22;;;22.63;nan
46408;BME280;32110;45.724;21.276;2023-05-01T13:06:30;100639.00;;;22.67;nan
46408;BME280;32110;45.724;21.276;2023-05-01T13:09:06;100640.28;;;22.70;nan
46408;BME280;32110;45.724;21.276;2023-05-01T13:11:33;100623.69;;;22.68;nan
46408;BME280;32110;45.724;21.276;2023-05-01T13:14:06;100636.69;;;22.75;nan
46408;BME280;32110;45.724;21.276;2023-05-01T13:16:32;100598.94;;;22.57;nan
46408;BME280;32110;45.724;21.276;2023-05-01T13:18:57;100636.16;;;22.86;nan
46408;BME280;32110;45.724;21.276;2023-05-01T13:21:23;100635.75;;;22.93;nan
46408;BME280;32110;45.724;21.276;2023-05-01T13:23:58;100630.38;;;22.93;nan
46408;BME280;32110;45.724;21.276;2023-05-01T13:28:51;100621.66;;;22.87;nan
46408;BME280;32110;45.724;21.276;2023-05-01T13:31:17;100619.47;;;22.89;nan
46408;BME280;32110;45.724;21.276;2023-05-01T13:33:42;100623.84;;;22.99;nan
46408;BME280;32110;45.724;21.276;2023-05-01T13:36:12;100620.63;;;23.11;nan
46408;BME280;32110;45.724;21.276;2023-05-01T13:38:43;100617.03;;;23.16;nan
46408;BME280;32110;45.724;21.276;2023-05-01T13:41:17;100621.00;;;23.18;nan
46408;BME280;32110;45.724;21.276;2023-05-01T13:43:47;100610.38;;;23.13;nan
46408;BME280;32110;45.724;21.276;2023-05-01T13:46:16;100618.97;;;23.01;nan
46408;BME280;32110;45.724;21.276;2023-05-01T13:48:42;100621.44;;;22.98;nan
46408;BME280;32110;45.724;21.276;2023-05-01T13:51:08;100614.78;;;22.95;nan
46408;BME280;32110;45.724;21.276;2023-05-01T13:53:34;100584.59;;;22.76;nan
46408;BME280;32110;45.724;21.276;2023-05-01T13:56:02;100609.91;;;22.97;nan
46408;BME280;32110;45.724;21.276;2023-05-01T14:00:54;100606.00;;;23.03;nan
46408;BME280;32110;45.724;21.276;2023-05-01T14:03:20;100602.63;;;22.98;nan
46408;BME280;32110;45.724;21.276;2023-05-01T14:05:46;100596.59;;;22.92;nan
46408;BME280;32110;45.724;21.276;2023-05-01T14:08:12;100584.25;;;22.91;nan
46408;BME280;32110;45.724;21.276;2023-05-01T14:10:39;100603.31;;;23.03;nan
46408;BME280;32110;45.724;21.276;2023-05-01T14:13:04;100597.50;;;23.01;nan
46408;BME280;32110;45.724;21.276;2023-05-01T14:15:32;100589.44;;;23.01;nan
46408;BME280;32110;45.724;21.276;2023-05-01T14:18:03;100585.94;;;23.01;nan
46408;BME280;32110;45.724;21.276;2023-05-01T14:20:29;100576.06;;;22.96;nan
46408;BME280;32110;45.724;21.276;2023-05-01T14:22:55;100583.44;;;23.04;nan
46408;BME280;32110;45.724;21.276;2023-05-01T14:27:49;100582.03;;;22.93;nan
46408;BME280;32110;45.724;21.276;2023-05-01T14:30:25;100573.81;;;22.89;nan
46408;BME280;32110;45.724;21.276;2023-05-01T14:32:52;100567.94;;;22.87;nan
46408;BME280;32110;45.724;21.276;2023-05-01T14:35:20;100587.31;;;22.98;nan
46408;BME280;32110;45.724;21.276;2023-05-01T14:37:46;100578.88;;;22.91;nan
46408;BME280;32110;45.724;21.276;2023-05-01T14:40:11;100580.16;;;22.93;nan
46408;BME280;32110;45.724;21.276;2023-05-01T14:42:43;100582.53;;;22.95;nan
46408;BME280;32110;45.724;21.276;2023-05-01T14:45:14;100576.31;;;22.86;nan
46408;BME280;32110;45.724;21.276;2023-05-01T14:47:44;100579.97;;;22.90;nan
46408;BME280;32110;45.724;21.276;2023-05-01T14:50:11;100575.69;;;22.89;nan
46408;BME280;32110;45.724;21.276;2023-05-01T14:52:40;100579.47;;;22.88;nan
46408;BME280;32110;45.724;21.276;2023-05-01T14:55:07;100571.84;;;22.81;nan
46408;BME280;32110;45.724;21.276;2023-05-01T14:57:32;100564.41;;;22.78;nan
46408;BME280;32110;45.724;21.276;2023-05-01T14:59:57;100572.34;;;22.83;nan
46408;BME280;32110;45.724;21.276;2023-05-01T15:02:23;100567.09;;;22.78;nan
46408;BME280;32110;45.724;21.276;2023-05-01T15:04:48;100563.91;;;22.76;nan
46408;BME280;32110;45.724;21.276;2023-05-01T15:07:14;100570.66;;;22.73;nan
46408;BME280;32110;45.724;21.276;2023-05-01T15:09:42;100562.72;;;22.68;nan
46408;BME280;32110;45.724;21.276;2023-05-01T15:12:08;100564.91;;;22.66;nan
46408;BME280;32110;45.724;21.276;2023-05-01T15:14:34;100564.13;;;22.66;nan
46408;BME280;32110;45.724;21.276;2023-05-01T15:16:59;100569.38;;;22.71;nan
46408;BME280;32110;45.724;21.276;2023-05-01T15:19:25;100551.13;;;22.59;nan
46408;BME280;32110;45.724;21.276;2023-05-01T15:21:50;100564.16;;;22.52;nan
46408;BME280;32110;45.724;21.276;2023-05-01T15:24:16;100556.88;;;22.52;nan
46408;BME280;32110;45.724;21.276;2023-05-01T15:26:44;100583.94;;;22.56;nan
46408;BME280;32110;45.724;21.276;2023-05-01T15:29:09;100563.06;;;22.53;nan
46408;BME280;32110;45.724;21.276;2023-05-01T15:31:35;100572.19;;;22.52;nan
46408;BME280;32110;45.724;21.276;2023-05-01T15:34:00;100567.72;;;22.47;nan
46408;BME280;32110;45.724;21.276;2023-05-01T15:36:26;100571.13;;;22.53;nan
46408;BME280;32110;45.724;21.276;2023-05-01T15:38:52;100563.47;;;22.46;nan
46408;BME280;32110;45.724;21.276;2023-05-01T15:41:17;100556.13;;;22.38;nan
46408;BME280;32110;45.724;21.276;2023-05-01T15:43:42;100557.81;;;22.34;nan
46408;BME280;32110;45.724;21.276;2023-05-01T15:46:08;100550.56;;;22.35;nan
46408;BME280;32110;45.724;21.276;2023-05-01T15:48:33;100556.22;;;22.33;nan
46408;BME280;32110;45.724;21.276;2023-05-01T15:50:58;100556.53;;;22.32;nan
46408;BME280;32110;45.724;21.276;2023-05-01T15:53:24;100557.72;;;22.25;nan
46408;BME280;32110;45.724;21.276;2023-05-01T15:55:49;100570.34;;;22.25;nan
46408;BME280;32110;45.724;21.276;2023-05-01T15:58:15;100567.16;;;22.23;nan
46408;BME280;32110;45.724;21.276;2023-05-01T16:00:41;100561.25;;;22.07;nan
46408;BME280;32110;45.724;21.276;2023-05-01T16:03:09;100550.34;;;22.03;nan
46408;BME280;32110;45.724;21.276;2023-05-01T16:05:36;100561.59;;;22.05;nan
46408;BME280;32110;45.724;21.276;2023-05-01T16:08:04;100558.00;;;21.96;nan
46408;BME280;32110;45.724;21.276;2023-05-01T16:10:33;100562.06;;;21.94;nan
46408;BME280;32110;45.724;21.276;2023-05-01T16:13:04;100559.38;;;21.94;nan
46408;BME280;32110;45.724;21.276;2023-05-01T16:15:31;100547.75;;;21.84;nan
46408;BME280;32110;45.724;21.276;2023-05-01T16:17:56;100549.75;;;21.79;nan
46408;BME280;32110;45.724;21.276;2023-05-01T16:20:22;100559.47;;;21.75;nan
46408;BME280;32110;45.724;21.276;2023-05-01T16:22:48;100559.16;;;21.62;nan
46408;BME280;32110;45.724;21.276;2023-05-01T16:25:14;100553.66;;;21.54;nan
46408;BME280;32110;45.724;21.276;2023-05-01T16:27:41;100549.09;;;21.54;nan
46408;BME280;32110;45.724;21.276;2023-05-01T16:30:09;100552.56;;;21.55;nan
46408;BME280;32110;45.724;21.276;2023-05-01T16:32:35;100557.44;;;21.53;nan
46408;BME280;32110;45.724;21.276;2023-05-01T16:35:02;100553.84;;;21.43;nan
46408;BME280;32110;45.724;21.276;2023-05-01T16:37:29;100525.97;;;21.25;nan
46408;BME280;32110;45.724;21.276;2023-05-01T16:39:57;100551.78;;;21.35;nan
46408;BME280;32110;45.724;21.276;2023-05-01T16:42:23;100553.09;;;21.38;nan
46408;BME280;32110;45.724;21.276;2023-05-01T16:44:48;100548.03;;;21.36;nan
46408;BME280;32110;45.724;21.276;2023-05-01T16:47:13;100557.66;;;21.37;nan
46408;BME280;32110;45.724;21.276;2023-05-01T16:49:40;100563.59;;;21.34;nan
46408;BME280;32110;45.724;21.276;2023-05-01T16:52:06;100566.28;;;21.34;nan
46408;BME280;32110;45.724;21.276;2023-05-01T16:54:34;100554.66;;;21.25;nan
46408;BME280;32110;45.724;21.276;2023-05-01T16:57:01;100555.53;;;21.20;nan
46408;BME280;32110;45.724;21.276;2023-05-01T16:59:27;100574.25;;;21.20;nan
46408;BME280;32110;45.724;21.276;2023-05-01T17:01:53;100556.97;;;21.13;nan
46408;BME280;32110;45.724;21.276;2023-05-01T17:04:18;100556.56;;;21.06;nan
46408;BME280;32110;45.724;21.276;2023-05-01T17:06:44;100556.56;;;21.06;nan
46408;BME280;32110;45.724;21.276;2023-05-01T17:09:09;100557.63;;;21.04;nan
46408;BME280;32110;45.724;21.276;2023-05-01T17:11:35;100554.56;;;20.97;nan
46408;BME280;32110;45.724;21.276;2023-05-01T17:14:01;100558.56;;;20.95;nan
46408;BME280;32110;45.724;21.276;2023-05-01T17:16:26;100556.78;;;20.90;nan
46408;BME280;32110;45.724;21.276;2023-05-01T17:18:51;100555.97;;;20.90;nan
46408;BME280;32110;45.724;21.276;2023-05-01T17:21:18;100565.31;;;20.92;nan
46408;BME280;32110;45.724;21.276;2023-05-01T17:23:43;100565.91;;;20.89;nan
46408;BME280;32110;45.724;21.276;2023-05-01T17:26:09;100572.63;;;20.87;nan
46408;BME280;32110;45.724;21.276;2023-05-01T17:28:34;100563.66;;;20.77;nan
46408;BME280;32110;45.724;21.276;2023-05-01T17:30:59;100568.22;;;20.77;nan
46408;BME280;32110;45.724;21.276;2023-05-01T17:33:28;100560.84;;;20.69;nan
46408;BME280;32110;45.724;21.276;2023-05-01T17:35:54;100572.09;;;20.66;nan
46408;BME280;32110;45.724;21.276;2023-05-01T17:38:21;100564.41;;;20.59;nan
46408;BME280;32110;45.724;21.276;2023-05-01T17:40:46;100561.28;;;20.52;nan
46408;BME280;32110;45.724;21.276;2023-05-01T17:43:12;100552.53;;;20.46;nan
46408;BME280;32110;45.724;21.276;2023-05-01T17:45:38;100557.28;;;20.49;nan
46408;BME280;32110;45.724;21.276;2023-05-01T17:48:03;100569.88;;;20.49;nan
46408;BME280;32110;45.724;21.276;2023-05-01T17:50:29;100559.31;;;20.38;nan
46408;BME280;32110;45.724;21.276;2023-05-01T17:52:54;100567.91;;;20.35;nan
46408;BME280;32110;45.724;21.276;2023-05-01T17:55:20;100576.50;;;20.32;nan
46408;BME280;32110;45.724;21.276;2023-05-01T17:57:46;100572.81;;;20.28;nan
46408;BME280;32110;45.724;21.276;2023-05-01T18:00:12;100568.38;;;20.18;nan
46408;BME280;32110;45.724;21.276;2023-05-01T18:02:37;100568.16;;;20.15;nan
46408;BME280;32110;45.724;21.276;2023-05-01T18:05:04;100569.78;;;20.11;nan
46408;BME280;32110;45.724;21.276;2023-05-01T18:07:29;100572.53;;;20.06;nan
46408;BME280;32110;45.724;21.276;2023-05-01T18:09:56;100563.81;;;19.95;nan
46408;BME280;32110;45.724;21.276;2023-05-01T18:12:21;100564.66;;;19.90;nan
46408;BME280;32110;45.724;21.276;2023-05-01T18:14:47;100575.63;;;19.89;nan
46408;BME280;32110;45.724;21.276;2023-05-01T18:17:12;100570.97;;;19.75;nan
46408;BME280;32110;45.724;21.276;2023-05-01T18:19:37;100576.53;;;19.79;nan
46408;BME280;32110;45.724;21.276;2023-05-01T18:22:03;100569.13;;;19.71;nan
46408;BME280;32110;45.724;21.276;2023-05-01T18:24:29;100577.69;;;19.68;nan
46408;BME280;32110;45.724;21.276;2023-05-01T18:26:54;100585.47;;;19.64;nan
46408;BME280;32110;45.724;21.276;2023-05-01T18:29:19;100586.06;;;19.56;nan
46408;BME280;32110;45.724;21.276;2023-05-01T18:31:47;100592.00;;;19.48;nan
46408;BME280;32110;45.724;21.276;2023-05-01T18:34:15;100592.31;;;19.41;nan
46408;BME280;32110;45.724;21.276;2023-05-01T18:36:40;100587.84;;;19.31;nan
46408;BME280;32110;45.724;21.276;2023-05-01T18:39:05;100598.31;;;19.28;nan
46408;BME280;32110;45.724;21.276;2023-05-01T18:41:31;100591.44;;;19.17;nan
46408;BME280;32110;45.724;21.276;2023-05-01T18:43:56;100586.16;;;19.06;nan
46408;BME280;32110;45.724;21.276;2023-05-01T18:46:23;100564.69;;;18.82;nan
46408;BME280;32110;45.724;21.276;2023-05-01T18:48:49;100577.50;;;18.80;nan
46408;BME280;32110;45.724;21.276;2023-05-01T18:51:14;100601.50;;;18.85;nan
46408;BME280;32110;45.724;21.276;2023-05-01T18:53:40;100590.34;;;18.68;nan
46408;BME280;32110;45.724;21.276;2023-05-01T18:56:06;100595.19;;;18.61;nan
46408;BME280;32110;45.724;21.276;2023-05-01T18:58:33;100589.09;;;18.50;nan
46408;BME280;32110;45.724;21.276;2023-05-01T19:00:59;100602.19;;;18.46;nan
46408;BME280;32110;45.724;21.276;2023-05-01T19:03:24;100600.34;;;18.37;nan
46408;BME280;32110;45.724;21.276;2023-05-01T19:05:49;100597.19;;;18.24;nan
46408;BME280;32110;45.724;21.276;2023-05-01T19:08:15;100602.25;;;18.21;nan